sensor_id;sensor_type;location;lat;lon;timestamp;pressure;altitude;pressure_sealevel;temperature;humidity
65131;BME280;51709;54.912;8.316;2023-01-31T00:03:13;101534.69;;;4.41;74.37
65131;BME280;51709;54.912;8.316;2023-01-31T00:08:34;101532.31;;;4.52;74.47
65131;BME280;51709;54.912;8.316;2023-01-31T00:13:57;101524.75;;;4.56;74.51
65131;BME280;51709;54.912;8.316;2023-01-31T00:19:17;101521.41;;;4.60;74.49
65131;BME280;51709;54.912;8.316;2023-01-31T00:24:38;101522.31;;;4.64;74.42
65131;BME280;51709;54.912;8.316;2023-01-31T00:29:58;101522.31;;;4.66;74.38
65131;BME280;51709;54.912;8.316;2023-01-31T00:35:19;101518.19;;;4.71;74.56
65131;BME280;51709;54.912;8.316;2023-01-31T00:40:41;101509.78;;;4.76;74.29
65131;BME280;51709;54.912;8.316;2023-01-31T00:46:02;101505.53;;;4.77;74.47
65131;BME280;51709;54.912;8.316;2023-01-31T00:51:24;101513.16;;;4.75;74.45
65131;BME280;51709;54.912;8.316;2023-01-31T00:56:46;101513.22;;;4.80;74.26
65131;BME280;51709;54.912;8.316;2023-01-31T01:02:07;101499.63;;;4.78;74.39
65131;BME280;51709;54.912;8.316;2023-01-31T01:07:27;101501.38;;;4.82;74.39
65131;BME280;51709;54.912;8.316;2023-01-31T01:12:48;101503.97;;;4.87;74.33
65131;BME280;51709;54.912;8.316;2023-01-31T01:18:08;101489.59;;;4.89;74.16
65131;BME280;51709;54.912;8.316;2023-01-31T01:23:30;101492.16;;;4.90;74.12
65131;BME280;51709;54.912;8.316;2023-01-31T01:28:52;101479.31;;;4.81;74.36
65131;BME280;51709;54.912;8.316;2023-01-31T01:34:15;101463.13;;;4.74;74.52
65131;BME280;51709;54.912;8.316;2023-01-31T01:39:39;101487.56;;;4.63;74.76
65131;BME280;51709;54.912;8.316;2023-01-31T01:45:08;101470.53;;;4.59;74.89
65131;BME280;51709;54.912;8.316;2023-01-31T01:50:43;101465.38;;;4.54;75.09
65131;BME280;51709;54.912;8.316;2023-01-31T01:56:10;101480.63;;;4.53;75.02
65131;BME280;51709;54.912;8.316;2023-01-31T02:01:36;101485.72;;;4.54;75.18
65131;BME280;51709;54.912;8.316;2023-01-31T02:07:01;101503.56;;;4.57;75.26
65131;BME280;51709;54.912;8.316;2023-01-31T02:12:22;101477.38;;;4.61;75.07
65131;BME280;51709;54.912;8.316;2023-01-31T02:17:44;101485.06;;;4.66;75.07
65131;BME280;51709;54.912;8.316;2023-01-31T02:34:15;101477.31;;;4.58;75.26
65131;BME280;51709;54.912;8.316;2023-01-31T02:46:01;101492.53;;;4.55;75.78
65131;BME280;51709;54.912;8.316;2023-01-31T02:51:31;101471.16;;;4.41;75.55
65131;BME280;51709;54.912;8.316;2023-01-31T02:56:55;101472.78;;;4.37;76.02
65131;BME280;51709;54.912;8.316;2023-01-31T03:02:16;101477.06;;;4.40;75.99
65131;BME280;51709;54.912;8.316;2023-01-31T03:07:38;101462.72;;;4.43;75.94
65131;BME280;51709;54.912;8.316;2023-01-31T03:18:55;101440.78;;;4.52;75.88
65131;BME280;51709;54.912;8.316;2023-01-31T03:24:18;101440.03;;;4.57;75.96
65131;BME280;51709;54.912;8.316;2023-01-31T03:29:43;101429.03;;;4.60;76.09
65131;BME280;51709;54.912;8.316;2023-01-31T03:35:04;101420.56;;;4.61;76.05
65131;BME280;51709;54.912;8.316;2023-01-31T03:40:31;101401.94;;;4.62;76.12
65131;BME280;51709;54.912;8.316;2023-01-31T03:46:00;101395.22;;;4.66;76.13
65131;BME280;51709;54.912;8.316;2023-01-31T03:51:28;101379.16;;;4.68;76.23
65131;BME280;51709;54.912;8.316;2023-01-31T03:56:56;101386.78;;;4.70;76.25
65131;BME280;51709;54.912;8.316;2023-01-31T04:02:22;101384.25;;;4.70;76.32
65131;BME280;51709;54.912;8.316;2023-01-31T04:07:44;101382.59;;;4.73;76.44
65131;BME280;51709;54.912;8.316;2023-01-31T04:13:13;101390.31;;;4.81;76.43
65131;BME280;51709;54.912;8.316;2023-01-31T04:18:33;101387.00;;;4.85;76.43
65131;BME280;51709;54.912;8.316;2023-01-31T04:23:57;101380.16;;;4.81;76.99
65131;BME280;51709;54.912;8.316;2023-01-31T04:29:18;101376.03;;;4.92;76.70
65131;BME280;51709;54.912;8.316;2023-01-31T04:34:39;101363.41;;;5.00;76.82
65131;BME280;51709;54.912;8.316;2023-01-31T04:39:59;101356.66;;;5.02;77.17
65131;BME280;51709;54.912;8.316;2023-01-31T04:45:20;101340.63;;;5.13;76.96
65131;BME280;51709;54.912;8.316;2023-01-31T04:50:41;101307.56;;;5.14;76.93
65131;BME280;51709;54.912;8.316;2023-01-31T04:56:02;101305.00;;;5.13;77.19
65131;BME280;51709;54.912;8.316;2023-01-31T05:01:24;101299.97;;;5.17;77.21
65131;BME280;51709;54.912;8.316;2023-01-31T05:06:44;101301.69;;;5.21;77.09
65131;BME280;51709;54.912;8.316;2023-01-31T05:12:05;101268.66;;;5.26;77.27
65131;BME280;51709;54.912;8.316;2023-01-31T05:17:27;101273.78;;;5.29;77.33
65131;BME280;51709;54.912;8.316;2023-01-31T05:22:49;101272.94;;;5.33;77.30
65131;BME280;51709;54.912;8.316;2023-01-31T05:28:11;101276.31;;;5.32;77.53
65131;BME280;51709;54.912;8.316;2023-01-31T05:33:32;101251.75;;;5.34;77.66
65131;BME280;51709;54.912;8.316;2023-01-31T05:38:52;101246.66;;;5.33;77.79
65131;BME280;51709;54.912;8.316;2023-01-31T05:44:13;101227.97;;;5.32;77.88
65131;BME280;51709;54.912;8.316;2023-01-31T05:49:35;101222.03;;;5.33;78.00
65131;BME280;51709;54.912;8.316;2023-01-31T05:54:56;101205.94;;;5.36;78.08
65131;BME280;51709;54.912;8.316;2023-01-31T06:00:17;101177.97;;;5.37;78.18
65131;BME280;51709;54.912;8.316;2023-01-31T06:05:41;101184.75;;;5.38;78.09
65131;BME280;51709;54.912;8.316;2023-01-31T06:11:02;101174.56;;;5.42;78.15
65131;BME280;51709;54.912;8.316;2023-01-31T06:16:27;101164.41;;;5.43;77.95
65131;BME280;51709;54.912;8.316;2023-01-31T06:21:47;101149.16;;;5.48;78.30
65131;BME280;51709;54.912;8.316;2023-01-31T06:27:08;101138.16;;;5.53;78.30
65131;BME280;51709;54.912;8.316;2023-01-31T06:32:28;101128.03;;;5.63;78.10
65131;BME280;51709;54.912;8.316;2023-01-31T06:37:49;101112.75;;;5.67;78.28
65131;BME280;51709;54.912;8.316;2023-01-31T06:43:10;101111.94;;;5.70;78.15
65131;BME280;51709;54.912;8.316;2023-01-31T06:48:31;101119.53;;;5.64;78.55
65131;BME280;51709;54.912;8.316;2023-01-31T06:53:51;101107.59;;;5.50;79.00
65131;BME280;51709;54.912;8.316;2023-01-31T06:59:12;101097.38;;;5.39;79.41
65131;BME280;51709;54.912;8.316;2023-01-31T07:04:33;101085.44;;;5.28;79.69
65131;BME280;51709;54.912;8.316;2023-01-31T07:09:53;101077.78;;;5.21;80.03
65131;BME280;51709;54.912;8.316;2023-01-31T07:15:14;101076.06;;;5.17;80.24
65131;BME280;51709;54.912;8.316;2023-01-31T07:20:35;101065.03;;;5.15;80.37
65131;BME280;51709;54.912;8.316;2023-01-31T07:25:56;101059.06;;;5.12;80.50
65131;BME280;51709;54.912;8.316;2023-01-31T07:31:16;101044.66;;;5.12;80.60
65131;BME280;51709;54.912;8.316;2023-01-31T07:36:36;101022.63;;;5.13;80.64
65131;BME280;51709;54.912;8.316;2023-01-31T07:41:57;101021.75;;;5.12;80.60
65131;BME280;51709;54.912;8.316;2023-01-31T07:47:18;101009.88;;;5.14;80.92
65131;BME280;51709;54.912;8.316;2023-01-31T07:52:38;100987.03;;;5.16;80.95
65131;BME280;51709;54.912;8.316;2023-01-31T07:57:59;100980.22;;;5.15;81.17
65131;BME280;51709;54.912;8.316;2023-01-31T08:03:23;100970.88;;;5.15;81.17
65131;BME280;51709;54.912;8.316;2023-01-31T08:08:54;100956.50;;;5.20;81.28
65131;BME280;51709;54.912;8.316;2023-01-31T08:14:14;100943.75;;;5.23;81.32
65131;BME280;51709;54.912;8.316;2023-01-31T08:19:36;100942.09;;;5.22;81.57
65131;BME280;51709;54.912;8.316;2023-01-31T08:24:57;100937.84;;;5.26;81.84
65131;BME280;51709;54.912;8.316;2023-01-31T08:30:18;100891.22;;;5.33;82.15
65131;BME280;51709;54.912;8.316;2023-01-31T08:35:38;100898.84;;;5.32;82.88
65131;BME280;51709;54.912;8.316;2023-01-31T08:41:23;100893.75;;;5.38;83.28
65131;BME280;51709;54.912;8.316;2023-01-31T08:46:54;100888.66;;;5.47;83.54
65131;BME280;51709;54.912;8.316;2023-01-31T08:52:14;100881.06;;;5.52;83.65
65131;BME280;51709;54.912;8.316;2023-01-31T08:57:35;100849.63;;;5.53;84.21
65131;BME280;51709;54.912;8.316;2023-01-31T09:03:13;100879.38;;;5.60;84.05
65131;BME280;51709;54.912;8.316;2023-01-31T09:08:36;100854.75;;;5.59;84.14
65131;BME280;51709;54.912;8.316;2023-01-31T09:13:57;100837.78;;;5.57;84.46
65131;BME280;51709;54.912;8.316;2023-01-31T09:19:18;100839.47;;;5.56;84.71
65131;BME280;51709;54.912;8.316;2023-01-31T09:24:38;100864.91;;;5.53;84.88
65131;BME280;51709;54.912;8.316;2023-01-31T09:29:59;100844.56;;;5.58;84.93
65131;BME280;51709;54.912;8.316;2023-01-31T09:35:20;100837.78;;;5.57;85.18
65131;BME280;51709;54.912;8.316;2023-01-31T09:40:42;100844.56;;;5.64;84.90
65131;BME280;51709;54.912;8.316;2023-01-31T09:46:05;100812.28;;;5.72;84.64
65131;BME280;51709;54.912;8.316;2023-01-31T09:51:31;100795.31;;;5.77;84.56
65131;BME280;51709;54.912;8.316;2023-01-31T10:13:33;100810.59;;;5.80;85.42
65131;BME280;51709;54.912;8.316;2023-01-31T10:19:05;100820.78;;;5.79;85.61
65131;BME280;51709;54.912;8.316;2023-01-31T10:24:30;100816.50;;;5.82;85.74
65131;BME280;51709;54.912;8.316;2023-01-31T10:29:54;100836.06;;;5.93;85.75
65131;BME280;51709;54.912;8.316;2023-01-31T10:35:22;100823.31;;;5.85;86.12
65131;BME280;51709;54.912;8.316;2023-01-31T10:40:47;100800.38;;;5.88;85.84
65131;BME280;51709;54.912;8.316;2023-01-31T10:46:11;100790.19;;;5.86;86.31
65131;BME280;51709;54.912;8.316;2023-01-31T10:57:24;100800.38;;;5.88;86.60
65131;BME280;51709;54.912;8.316;2023-01-31T11:02:44;100769.66;;;6.44;85.53
65131;BME280;51709;54.912;8.316;2023-01-31T11:08:21;100765.00;;;7.03;83.64
65131;BME280;51709;54.912;8.316;2023-01-31T11:13:57;100738.44;;;7.26;83.49
65131;BME280;51709;54.912;8.316;2023-01-31T11:24:45;100725.50;;;8.23;81.35
65131;BME280;51709;54.912;8.316;2023-01-31T11:30:28;100730.38;;;7.68;82.18
65131;BME280;51709;54.912;8.316;2023-01-31T11:35:51;100730.03;;;7.18;83.91
65131;BME280;51709;54.912;8.316;2023-01-31T11:41:35;100714.00;;;7.02;84.53
65131;BME280;51709;54.912;8.316;2023-01-31T11:46:59;100713.41;;;7.64;83.53
65131;BME280;51709;54.912;8.316;2023-01-31T11:52:30;100690.06;;;7.95;81.68
65131;BME280;51709;54.912;8.316;2023-01-31T11:57:58;100678.16;;;7.94;82.13
65131;BME280;51709;54.912;8.316;2023-01-31T12:03:21;100708.88;;;7.89;82.00
65131;BME280;51709;54.912;8.316;2023-01-31T12:08:42;100645.91;;;8.44;80.48
65131;BME280;51709;54.912;8.316;2023-01-31T12:19:36;100635.78;;;8.93;78.89
65131;BME280;51709;54.912;8.316;2023-01-31T12:25:17;100625.38;;;9.01;78.48
65131;BME280;51709;54.912;8.316;2023-01-31T12:30:51;100612.84;;;8.87;77.99
65131;BME280;51709;54.912;8.316;2023-01-31T12:53:42;100620.31;;;7.15;81.32
65131;BME280;51709;54.912;8.316;2023-01-31T12:59:28;100593.22;;;7.01;81.75
65131;BME280;51709;54.912;8.316;2023-01-31T13:05:10;100571.22;;;6.92;81.58
65131;BME280;51709;54.912;8.316;2023-01-31T13:10:38;100570.47;;;6.83;81.73
65131;BME280;51709;54.912;8.316;2023-01-31T13:16:19;100623.78;;;7.11;81.10
65131;BME280;51709;54.912;8.316;2023-01-31T13:21:45;100590.63;;;7.78;78.60
65131;BME280;51709;54.912;8.316;2023-01-31T13:27:19;100551.44;;;7.77;78.18
65131;BME280;51709;54.912;8.316;2023-01-31T13:32:46;100560.81;;;7.78;78.15
65131;BME280;51709;54.912;8.316;2023-01-31T13:38:14;100605.41;;;7.54;78.98
65131;BME280;51709;54.912;8.316;2023-01-31T13:43:37;100574.75;;;7.55;78.67
65131;BME280;51709;54.912;8.316;2023-01-31T13:49:03;100552.19;;;7.18;79.49
65131;BME280;51709;54.912;8.316;2023-01-31T13:54:34;100567.75;;;6.97;79.96
65131;BME280;51709;54.912;8.316;2023-01-31T14:00:28;100572.03;;;6.94;79.80
65131;BME280;51709;54.912;8.316;2023-01-31T14:05:59;100601.66;;;7.08;79.05
65131;BME280;51709;54.912;8.316;2023-01-31T14:16:44;100588.94;;;7.03;78.24
65131;BME280;51709;54.912;8.316;2023-01-31T14:22:17;100585.63;;;6.97;78.34
65131;BME280;51709;54.912;8.316;2023-01-31T15:01:06;100647.06;;;6.72;76.74
65131;BME280;51709;54.912;8.316;2023-01-31T15:06:29;100648.22;;;6.30;77.46
65131;BME280;51709;54.912;8.316;2023-01-31T15:11:54;100644.16;;;6.00;77.76
65131;BME280;51709;54.912;8.316;2023-01-31T15:17:19;100663.72;;;5.85;78.13
65131;BME280;51709;54.912;8.316;2023-01-31T15:22:57;100671.41;;;5.75;78.22
65131;BME280;51709;54.912;8.316;2023-01-31T15:28:25;100645.91;;;5.78;77.97
65131;BME280;51709;54.912;8.316;2023-01-31T15:33:52;100649.38;;;5.69;77.93
65131;BME280;51709;54.912;8.316;2023-01-31T15:39:25;100662.00;;;5.84;77.04
65131;BME280;51709;54.912;8.316;2023-01-31T15:44:49;100657.81;;;5.74;76.91
65131;BME280;51709;54.912;8.316;2023-01-31T15:50:14;100669.75;;;5.63;76.88
65131;BME280;51709;54.912;8.316;2023-01-31T15:55:35;100689.28;;;5.58;76.76
65131;BME280;51709;54.912;8.316;2023-01-31T16:00:58;100684.19;;;5.62;76.43
65131;BME280;51709;54.912;8.316;2023-01-31T16:06:22;100673.97;;;5.65;76.14
65131;BME280;51709;54.912;8.316;2023-01-31T16:11:44;100679.09;;;5.56;76.31
65131;BME280;51709;54.912;8.316;2023-01-31T16:17:04;100675.72;;;5.52;76.42
65131;BME280;51709;54.912;8.316;2023-01-31T16:22:29;100678.25;;;5.57;76.08
65131;BME280;51709;54.912;8.316;2023-01-31T16:27:49;100671.44;;;5.61;75.12
65131;BME280;51709;54.912;8.316;2023-01-31T16:33:22;100650.22;;;5.59;74.63
65131;BME280;51709;54.912;8.316;2023-01-31T16:38:54;100655.31;;;5.63;74.04
65131;BME280;51709;54.912;8.316;2023-01-31T16:44:20;100679.91;;;5.69;73.66
65131;BME280;51709;54.912;8.316;2023-01-31T16:49:42;100677.34;;;5.72;73.27
65131;BME280;51709;54.912;8.316;2023-01-31T16:55:12;100656.19;;;5.51;73.42
65131;BME280;51709;54.912;8.316;2023-01-31T17:00:36;100701.22;;;5.23;73.78
65131;BME280;51709;54.912;8.316;2023-01-31T17:05:57;100697.84;;;5.08;74.06
65131;BME280;51709;54.912;8.316;2023-01-31T17:11:17;100689.34;;;5.09;73.96
65131;BME280;51709;54.912;8.316;2023-01-31T17:16:58;100728.38;;;5.12;73.83
65131;BME280;51709;54.912;8.316;2023-01-31T17:22:21;100676.59;;;5.31;73.40
65131;BME280;51709;54.912;8.316;2023-01-31T17:27:45;100724.97;;;5.34;73.50
65131;BME280;51709;54.912;8.316;2023-01-31T17:33:12;100704.59;;;5.23;74.04
65131;BME280;51709;54.912;8.316;2023-01-31T17:38:33;100694.44;;;5.14;74.40
65131;BME280;51709;54.912;8.316;2023-01-31T17:43:54;100698.69;;;5.01;74.15
65131;BME280;51709;54.912;8.316;2023-01-31T17:49:15;100714.81;;;4.96;73.80
65131;BME280;51709;54.912;8.316;2023-01-31T17:54:35;100727.53;;;4.96;73.86
65131;BME280;51709;54.912;8.316;2023-01-31T17:59:56;100718.19;;;5.13;73.48
65131;BME280;51709;54.912;8.316;2023-01-31T18:05:17;100691.91;;;5.25;73.31
65131;BME280;51709;54.912;8.316;2023-01-31T18:10:46;100722.41;;;5.40;72.98
65131;BME280;51709;54.912;8.316;2023-01-31T18:16:09;100724.09;;;5.48;72.66
65131;BME280;51709;54.912;8.316;2023-01-31T18:21:30;100699.47;;;5.56;72.42
65131;BME280;51709;54.912;8.316;2023-01-31T18:26:52;100732.56;;;5.58;71.60
65131;BME280;51709;54.912;8.316;2023-01-31T18:32:13;100761.41;;;5.57;71.41
65131;BME280;51709;54.912;8.316;2023-01-31T18:37:34;100751.25;;;5.49;71.74
65131;BME280;51709;54.912;8.316;2023-01-31T18:42:55;100754.63;;;5.37;71.96
65131;BME280;51709;54.912;8.316;2023-01-31T18:48:15;100763.13;;;5.19;71.94
65131;BME280;51709;54.912;8.316;2023-01-31T18:53:38;100735.16;;;5.17;72.04
65131;BME280;51709;54.912;8.316;2023-01-31T18:58:59;100735.13;;;5.23;71.89
65131;BME280;51709;54.912;8.316;2023-01-31T19:04:20;100743.63;;;5.21;71.86
65131;BME280;51709;54.912;8.316;2023-01-31T19:09:40;100771.63;;;5.12;71.95
65131;BME280;51709;54.912;8.316;2023-01-31T19:15:01;100732.59;;;5.14;71.98
65131;BME280;51709;54.912;8.316;2023-01-31T19:20:21;100729.22;;;5.23;71.93
65131;BME280;51709;54.912;8.316;2023-01-31T19:25:42;100738.53;;;5.36;71.60
65131;BME280;51709;54.912;8.316;2023-01-31T19:31:04;100734.28;;;5.48;71.28
65131;BME280;51709;54.912;8.316;2023-01-31T19:36:30;100771.56;;;5.63;71.10
65131;BME280;51709;54.912;8.316;2023-01-31T19:41:51;100745.31;;;5.27;72.12
65131;BME280;51709;54.912;8.316;2023-01-31T19:47:15;100771.63;;;5.10;72.87
65131;BME280;51709;54.912;8.316;2023-01-31T19:52:35;100778.38;;;4.94;73.34
65131;BME280;51709;54.912;8.316;2023-01-31T19:57:58;100752.88;;;4.65;74.02
65131;BME280;51709;54.912;8.316;2023-01-31T20:03:18;100766.41;;;4.50;74.47
65131;BME280;51709;54.912;8.316;2023-01-31T20:08:39;100750.31;;;4.47;74.42
65131;BME280;51709;54.912;8.316;2023-01-31T20:14:03;100764.72;;;4.53;74.62
65131;BME280;51709;54.912;8.316;2023-01-31T20:19:25;100755.47;;;4.75;74.32
65131;BME280;51709;54.912;8.316;2023-01-31T20:24:46;100766.50;;;4.90;74.38
65131;BME280;51709;54.912;8.316;2023-01-31T20:30:08;100752.09;;;5.07;74.03
65131;BME280;51709;54.912;8.316;2023-01-31T20:35:29;100732.59;;;5.14;73.92
65131;BME280;51709;54.912;8.316;2023-01-31T20:40:53;100688.50;;;5.18;73.84
65131;BME280;51709;54.912;8.316;2023-01-31T20:46:14;100736.84;;;5.21;73.63
65131;BME280;51709;54.912;8.316;2023-01-31T20:51:35;100752.13;;;5.26;73.49
65131;BME280;51709;54.912;8.316;2023-01-31T20:56:56;100723.25;;;5.39;73.10
65131;BME280;51709;54.912;8.316;2023-01-31T21:02:17;100702.88;;;5.38;73.45
65131;BME280;51709;54.912;8.316;2023-01-31T21:07:38;100719.88;;;5.28;74.03
65131;BME280;51709;54.912;8.316;2023-01-31T21:12:59;100745.34;;;5.20;74.50
65131;BME280;51709;54.912;8.316;2023-01-31T21:18:20;100765.66;;;5.19;74.43
65131;BME280;51709;54.912;8.316;2023-01-31T21:23:41;100752.09;;;5.15;74.39
65131;BME280;51709;54.912;8.316;2023-01-31T21:29:02;100752.09;;;5.12;74.05
65131;BME280;51709;54.912;8.316;2023-01-31T21:34:23;100756.34;;;5.05;74.38
65131;BME280;51709;54.912;8.316;2023-01-31T21:39:46;100741.06;;;5.01;74.40
65131;BME280;51709;54.912;8.316;2023-01-31T21:45:10;100780.03;;;4.83;75.04
65131;BME280;51709;54.912;8.316;2023-01-31T21:50:33;100759.56;;;4.27;75.52
65131;BME280;51709;54.912;8.316;2023-01-31T21:56:01;100763.66;;;3.94;76.34
65131;BME280;51709;54.912;8.316;2023-01-31T22:01:26;100754.25;;;3.77;76.45
65131;BME280;51709;54.912;8.316;2023-01-31T22:06:48;100753.41;;;3.77;76.95
65131;BME280;51709;54.912;8.316;2023-01-31T22:12:09;100768.63;;;3.74;77.22
65131;BME280;51709;54.912;8.316;2023-01-31T22:17:30;100738.19;;;3.78;77.18
65131;BME280;51709;54.912;8.316;2023-01-31T22:22:51;100701.09;;;4.05;77.47
65131;BME280;51709;54.912;8.316;2023-01-31T22:28:11;100721.53;;;4.55;76.72
65131;BME280;51709;54.912;8.316;2023-01-31T22:33:34;100752.94;;;4.83;76.15
65131;BME280;51709;54.912;8.316;2023-01-31T22:38:55;100719.06;;;5.00;76.23
65131;BME280;51709;54.912;8.316;2023-01-31T22:44:15;100733.44;;;5.08;76.42
65131;BME280;51709;54.912;8.316;2023-01-31T22:49:36;100719.88;;;5.19;76.07
65131;BME280;51709;54.912;8.316;2023-01-31T22:54:57;100713.94;;;5.23;75.97
65131;BME280;51709;54.912;8.316;2023-01-31T23:00:18;100713.09;;;5.25;76.14
65131;BME280;51709;54.912;8.316;2023-01-31T23:05:41;100708.00;;;5.36;75.94
65131;BME280;51709;54.912;8.316;2023-01-31T23:11:08;100708.84;;;5.35;76.37
65131;BME280;51709;54.912;8.316;2023-01-31T23:16:29;100700.34;;;5.43;76.36
65131;BME280;51709;54.912;8.316;2023-01-31T23:22:08;100726.66;;;5.40;76.28
65131;BME280;51709;54.912;8.316;2023-01-31T23:27:28;100694.41;;;5.39;76.25
65131;BME280;51709;54.912;8.316;2023-01-31T23:32:50;100725.81;;;5.39;76.24
65131;BME280;51709;54.912;8.316;2023-01-31T23:38:10;100674.91;;;5.39;75.94
65131;BME280;51709;54.912;8.316;2023-01-31T23:43:31;100697.81;;;5.41;75.50
65131;BME280;51709;54.912;8.316;2023-01-31T23:48:52;100691.00;;;5.40;75.15
65131;BME280;51709;54.912;8.316;2023-01-31T23:54:13;100684.22;;;5.42;75.15
65131;BME280;51709;54.912;8.316;2023-01-31T23:59:33;100690.16;;;5.49;75.28
